sensor_id;sensor_type;location;lat;lon;timestamp;temperature;humidity
13970;DHT22;7057;49.984;8.404;2023-06-24T00:01:32;18.00;99.90
13970;DHT22;7057;49.984;8.404;2023-06-24T00:04:00;17.90;99.90
13970;DHT22;7057;49.984;8.404;2023-06-24T00:06:27;17.90;99.90
13970;DHT22;7057;49.984;8.404;2023-06-24T00:08:54;17.80;99.90
13970;DHT22;7057;49.984;8.404;2023-06-24T00:11:28;17.80;99.90
13970;DHT22;7057;49.984;8.404;2023-06-24T00:13:56;17.80;99.90
13970;DHT22;7057;49.984;8.404;2023-06-24T00:16:23;17.70;99.90
13970;DHT22;7057;49.984;8.404;2023-06-24T00:18:54;17.70;99.90
13970;DHT22;7057;49.984;8.404;2023-06-24T00:21:24;17.70;99.90
13970;DHT22;7057;49.984;8.404;2023-06-24T00:23:56;17.70;99.90
13970;DHT22;7057;49.984;8.404;2023-06-24T00:26:23;17.60;99.90
13970;DHT22;7057;49.984;8.404;2023-06-24T00:28:52;17.60;99.90
13970;DHT22;7057;49.984;8.404;2023-06-24T00:31:20;17.60;99.90
13970;DHT22;7057;49.984;8.404;2023-06-24T00:33:47;17.60;99.90
13970;DHT22;7057;49.984;8.404;2023-06-24T00:36:15;17.50;99.90
13970;DHT22;7057;49.984;8.404;2023-06-24T00:38:42;17.50;99.90
13970;DHT22;7057;49.984;8.404;2023-06-24T00:41:09;17.50;99.90
13970;DHT22;7057;49.984;8.404;2023-06-24T00:43:37;17.50;99.90
13970;DHT22;7057;49.984;8.404;2023-06-24T00:46:06;17.50;99.90
13970;DHT22;7057;49.984;8.404;2023-06-24T00:48:33;17.50;99.90
13970;DHT22;7057;49.984;8.404;2023-06-24T00:51:01;17.50;99.90
13970;DHT22;7057;49.984;8.404;2023-06-24T00:53:28;17.50;99.90
13970;DHT22;7057;49.984;8.404;2023-06-24T00:55:56;17.40;99.90
13970;DHT22;7057;49.984;8.404;2023-06-24T00:58:28;17.40;99.90
13970;DHT22;7057;49.984;8.404;2023-06-24T01:00:56;17.40;99.90
13970;DHT22;7057;49.984;8.404;2023-06-24T01:03:26;17.40;99.90
13970;DHT22;7057;49.984;8.404;2023-06-24T01:05:54;17.40;99.90
13970;DHT22;7057;49.984;8.404;2023-06-24T01:08:21;17.40;99.90
13970;DHT22;7057;49.984;8.404;2023-06-24T01:10:49;17.40;99.90
13970;DHT22;7057;49.984;8.404;2023-06-24T01:13:17;17.40;99.90
13970;DHT22;7057;49.984;8.404;2023-06-24T01:15:45;17.40;99.90
13970;DHT22;7057;49.984;8.404;2023-06-24T01:18:21;17.30;99.90
13970;DHT22;7057;49.984;8.404;2023-06-24T01:20:56;17.30;99.90
13970;DHT22;7057;49.984;8.404;2023-06-24T01:23:48;17.30;99.90
13970;DHT22;7057;49.984;8.404;2023-06-24T01:26:35;17.30;99.90
13970;DHT22;7057;49.984;8.404;2023-06-24T01:29:34;17.30;99.90
13970;DHT22;7057;49.984;8.404;2023-06-24T01:32:06;17.30;99.90
13970;DHT22;7057;49.984;8.404;2023-06-24T01:34:43;17.30;99.90
13970;DHT22;7057;49.984;8.404;2023-06-24T01:37:16;17.30;99.90
13970;DHT22;7057;49.984;8.404;2023-06-24T01:39:47;17.30;99.90
13970;DHT22;7057;49.984;8.404;2023-06-24T01:42:17;17.20;99.90
13970;DHT22;7057;49.984;8.404;2023-06-24T01:44:48;17.20;99.90
13970;DHT22;7057;49.984;8.404;2023-06-24T01:47:20;17.10;99.90
13970;DHT22;7057;49.984;8.404;2023-06-24T01:49:49;17.10;99.90
13970;DHT22;7057;49.984;8.404;2023-06-24T01:52:21;17.00;99.90
13970;DHT22;7057;49.984;8.404;2023-06-24T01:54:49;17.00;99.90
13970;DHT22;7057;49.984;8.404;2023-06-24T01:57:18;16.90;99.90
13970;DHT22;7057;49.984;8.404;2023-06-24T01:59:47;16.90;99.90
13970;DHT22;7057;49.984;8.404;2023-06-24T02:02:17;16.90;99.90
13970;DHT22;7057;49.984;8.404;2023-06-24T02:04:46;16.90;99.90
13970;DHT22;7057;49.984;8.404;2023-06-24T02:07:15;16.90;99.90
13970;DHT22;7057;49.984;8.404;2023-06-24T02:09:44;16.80;99.90
13970;DHT22;7057;49.984;8.404;2023-06-24T02:12:12;16.80;99.90
13970;DHT22;7057;49.984;8.404;2023-06-24T02:14:40;16.70;99.90
13970;DHT22;7057;49.984;8.404;2023-06-24T02:17:10;16.70;99.90
13970;DHT22;7057;49.984;8.404;2023-06-24T02:19:39;16.60;99.90
13970;DHT22;7057;49.984;8.404;2023-06-24T02:22:08;16.60;99.90
13970;DHT22;7057;49.984;8.404;2023-06-24T02:24:36;16.60;99.90
13970;DHT22;7057;49.984;8.404;2023-06-24T02:27:05;16.60;99.90
13970;DHT22;7057;49.984;8.404;2023-06-24T02:29:33;16.50;99.90
13970;DHT22;7057;49.984;8.404;2023-06-24T02:32:03;16.50;99.90
13970;DHT22;7057;49.984;8.404;2023-06-24T02:34:30;16.40;99.90
13970;DHT22;7057;49.984;8.404;2023-06-24T02:36:59;16.40;99.90
13970;DHT22;7057;49.984;8.404;2023-06-24T02:39:26;16.40;99.90
13970;DHT22;7057;49.984;8.404;2023-06-24T02:41:53;16.30;99.90
13970;DHT22;7057;49.984;8.404;2023-06-24T02:44:20;16.30;99.90
13970;DHT22;7057;49.984;8.404;2023-06-24T02:46:49;16.30;99.90
13970;DHT22;7057;49.984;8.404;2023-06-24T02:49:17;16.20;99.90
13970;DHT22;7057;49.984;8.404;2023-06-24T02:51:45;16.20;99.90
13970;DHT22;7057;49.984;8.404;2023-06-24T02:54:14;16.20;99.90
13970;DHT22;7057;49.984;8.404;2023-06-24T02:56:42;16.20;99.90
13970;DHT22;7057;49.984;8.404;2023-06-24T02:59:10;16.20;99.90
13970;DHT22;7057;49.984;8.404;2023-06-24T03:01:38;16.20;99.90
13970;DHT22;7057;49.984;8.404;2023-06-24T03:04:11;16.10;99.90
13970;DHT22;7057;49.984;8.404;2023-06-24T03:06:39;16.10;99.90
13970;DHT22;7057;49.984;8.404;2023-06-24T03:09:08;16.00;99.90
13970;DHT22;7057;49.984;8.404;2023-06-24T03:11:42;16.00;99.90
13970;DHT22;7057;49.984;8.404;2023-06-24T03:14:09;16.00;99.90
13970;DHT22;7057;49.984;8.404;2023-06-24T03:16:37;16.00;99.90
13970;DHT22;7057;49.984;8.404;2023-06-24T03:19:05;16.00;99.90
13970;DHT22;7057;49.984;8.404;2023-06-24T03:21:32;16.00;99.90
13970;DHT22;7057;49.984;8.404;2023-06-24T03:23:59;16.00;99.90
13970;DHT22;7057;49.984;8.404;2023-06-24T03:26:32;16.00;99.90
13970;DHT22;7057;49.984;8.404;2023-06-24T03:29:00;15.90;99.90
13970;DHT22;7057;49.984;8.404;2023-06-24T03:31:28;16.00;99.90
13970;DHT22;7057;49.984;8.404;2023-06-24T03:33:55;16.00;99.90
13970;DHT22;7057;49.984;8.404;2023-06-24T03:36:22;16.00;99.90
13970;DHT22;7057;49.984;8.404;2023-06-24T03:38:50;16.10;99.90
13970;DHT22;7057;49.984;8.404;2023-06-24T03:41:17;16.10;99.90
13970;DHT22;7057;49.984;8.404;2023-06-24T03:43:44;16.10;99.90
13970;DHT22;7057;49.984;8.404;2023-06-24T03:46:13;16.10;99.90
13970;DHT22;7057;49.984;8.404;2023-06-24T03:48:40;16.10;99.90
13970;DHT22;7057;49.984;8.404;2023-06-24T03:51:07;16.20;99.90
13970;DHT22;7057;49.984;8.404;2023-06-24T03:53:34;16.20;99.90
13970;DHT22;7057;49.984;8.404;2023-06-24T03:56:01;16.20;99.90
13970;DHT22;7057;49.984;8.404;2023-06-24T03:58:28;16.10;99.90
13970;DHT22;7057;49.984;8.404;2023-06-24T04:00:58;16.20;99.90
13970;DHT22;7057;49.984;8.404;2023-06-24T04:03:27;16.20;99.90
13970;DHT22;7057;49.984;8.404;2023-06-24T04:05:55;16.30;99.90
13970;DHT22;7057;49.984;8.404;2023-06-24T04:08:22;16.30;99.90
13970;DHT22;7057;49.984;8.404;2023-06-24T04:10:51;16.40;99.90
13970;DHT22;7057;49.984;8.404;2023-06-24T04:13:18;16.50;99.90
13970;DHT22;7057;49.984;8.404;2023-06-24T04:15:45;16.50;99.90
13970;DHT22;7057;49.984;8.404;2023-06-24T04:18:12;16.60;99.90
13970;DHT22;7057;49.984;8.404;2023-06-24T04:20:41;16.70;99.90
13970;DHT22;7057;49.984;8.404;2023-06-24T04:23:08;16.80;99.90
13970;DHT22;7057;49.984;8.404;2023-06-24T04:25:37;17.00;99.90
13970;DHT22;7057;49.984;8.404;2023-06-24T04:28:04;17.10;99.90
13970;DHT22;7057;49.984;8.404;2023-06-24T04:30:31;17.20;99.90
13970;DHT22;7057;49.984;8.404;2023-06-24T04:32:58;17.30;99.90
13970;DHT22;7057;49.984;8.404;2023-06-24T04:35:25;17.40;99.90
13970;DHT22;7057;49.984;8.404;2023-06-24T04:37:54;17.60;99.90
13970;DHT22;7057;49.984;8.404;2023-06-24T04:40:21;17.70;99.90
13970;DHT22;7057;49.984;8.404;2023-06-24T04:42:48;17.80;99.90
13970;DHT22;7057;49.984;8.404;2023-06-24T04:45:16;17.90;99.90
13970;DHT22;7057;49.984;8.404;2023-06-24T04:47:43;18.00;99.90
13970;DHT22;7057;49.984;8.404;2023-06-24T04:50:10;18.10;99.90
13970;DHT22;7057;49.984;8.404;2023-06-24T04:52:39;18.20;99.90
13970;DHT22;7057;49.984;8.404;2023-06-24T04:55:08;18.30;99.90
13970;DHT22;7057;49.984;8.404;2023-06-24T04:57:35;18.40;99.90
13970;DHT22;7057;49.984;8.404;2023-06-24T05:00:03;18.60;99.90
13970;DHT22;7057;49.984;8.404;2023-06-24T05:02:31;18.70;99.90
13970;DHT22;7057;49.984;8.404;2023-06-24T05:04:58;18.80;99.90
13970;DHT22;7057;49.984;8.404;2023-06-24T05:07:25;18.90;99.90
13970;DHT22;7057;49.984;8.404;2023-06-24T05:09:53;19.00;99.90
13970;DHT22;7057;49.984;8.404;2023-06-24T05:12:21;19.10;99.90
13970;DHT22;7057;49.984;8.404;2023-06-24T05:14:50;19.20;99.90
13970;DHT22;7057;49.984;8.404;2023-06-24T05:17:17;19.30;99.90
13970;DHT22;7057;49.984;8.404;2023-06-24T05:19:45;19.40;99.90
13970;DHT22;7057;49.984;8.404;2023-06-24T05:22:12;19.50;99.90
13970;DHT22;7057;49.984;8.404;2023-06-24T05:24:39;19.50;99.90
13970;DHT22;7057;49.984;8.404;2023-06-24T05:27:07;19.50;99.90
13970;DHT22;7057;49.984;8.404;2023-06-24T05:29:36;19.60;99.90
13970;DHT22;7057;49.984;8.404;2023-06-24T05:32:04;19.70;99.90
13970;DHT22;7057;49.984;8.404;2023-06-24T05:34:31;19.80;99.90
13970;DHT22;7057;49.984;8.404;2023-06-24T05:36:59;19.80;99.90
13970;DHT22;7057;49.984;8.404;2023-06-24T05:39:27;19.90;99.90
13970;DHT22;7057;49.984;8.404;2023-06-24T05:41:54;20.00;99.90
13970;DHT22;7057;49.984;8.404;2023-06-24T05:44:21;20.10;99.90
13970;DHT22;7057;49.984;8.404;2023-06-24T05:46:50;20.10;99.90
13970;DHT22;7057;49.984;8.404;2023-06-24T05:49:17;20.20;99.90
13970;DHT22;7057;49.984;8.404;2023-06-24T05:51:44;20.30;99.90
13970;DHT22;7057;49.984;8.404;2023-06-24T05:54:12;20.40;99.90
13970;DHT22;7057;49.984;8.404;2023-06-24T05:56:39;20.40;99.90
13970;DHT22;7057;49.984;8.404;2023-06-24T05:59:06;20.50;99.90
13970;DHT22;7057;49.984;8.404;2023-06-24T06:01:33;20.60;99.90
13970;DHT22;7057;49.984;8.404;2023-06-24T06:04:02;20.60;99.90
13970;DHT22;7057;49.984;8.404;2023-06-24T06:06:29;20.60;99.90
13970;DHT22;7057;49.984;8.404;2023-06-24T06:08:57;20.70;99.90
13970;DHT22;7057;49.984;8.404;2023-06-24T06:11:24;20.70;99.90
13970;DHT22;7057;49.984;8.404;2023-06-24T06:13:51;20.70;99.90
13970;DHT22;7057;49.984;8.404;2023-06-24T06:16:19;20.70;99.90
13970;DHT22;7057;49.984;8.404;2023-06-24T06:18:46;20.80;99.90
13970;DHT22;7057;49.984;8.404;2023-06-24T06:21:14;20.90;99.90
13970;DHT22;7057;49.984;8.404;2023-06-24T06:23:42;20.90;99.90
13970;DHT22;7057;49.984;8.404;2023-06-24T06:26:09;21.00;99.90
13970;DHT22;7057;49.984;8.404;2023-06-24T06:28:36;21.00;99.90
13970;DHT22;7057;49.984;8.404;2023-06-24T06:31:03;21.10;99.90
13970;DHT22;7057;49.984;8.404;2023-06-24T06:33:32;21.10;99.90
13970;DHT22;7057;49.984;8.404;2023-06-24T06:35:59;21.20;99.90
13970;DHT22;7057;49.984;8.404;2023-06-24T06:38:28;21.30;99.90
13970;DHT22;7057;49.984;8.404;2023-06-24T06:40:55;21.40;99.90
13970;DHT22;7057;49.984;8.404;2023-06-24T06:43:23;21.50;99.90
13970;DHT22;7057;49.984;8.404;2023-06-24T06:45:50;21.60;99.90
13970;DHT22;7057;49.984;8.404;2023-06-24T06:48:17;21.70;99.90
13970;DHT22;7057;49.984;8.404;2023-06-24T06:50:45;21.70;99.90
13970;DHT22;7057;49.984;8.404;2023-06-24T06:53:12;21.90;99.90
13970;DHT22;7057;49.984;8.404;2023-06-24T06:55:40;22.00;99.90
13970;DHT22;7057;49.984;8.404;2023-06-24T06:58:08;22.00;99.90
13970;DHT22;7057;49.984;8.404;2023-06-24T07:00:36;22.10;99.90
13970;DHT22;7057;49.984;8.404;2023-06-24T07:03:03;22.10;99.90
13970;DHT22;7057;49.984;8.404;2023-06-24T07:05:30;22.20;99.90
13970;DHT22;7057;49.984;8.404;2023-06-24T07:07:57;22.40;99.90
13970;DHT22;7057;49.984;8.404;2023-06-24T07:10:24;22.60;99.90
13970;DHT22;7057;49.984;8.404;2023-06-24T07:12:53;22.70;99.90
13970;DHT22;7057;49.984;8.404;2023-06-24T07:15:24;22.90;99.90
13970;DHT22;7057;49.984;8.404;2023-06-24T07:17:52;23.00;99.90
13970;DHT22;7057;49.984;8.404;2023-06-24T07:20:21;23.10;99.90
13970;DHT22;7057;49.984;8.404;2023-06-24T07:22:49;23.20;99.90
13970;DHT22;7057;49.984;8.404;2023-06-24T07:25:16;23.10;99.90
13970;DHT22;7057;49.984;8.404;2023-06-24T07:27:43;22.90;99.90
13970;DHT22;7057;49.984;8.404;2023-06-24T07:30:12;23.10;99.90
13970;DHT22;7057;49.984;8.404;2023-06-24T07:32:39;23.20;99.90
13970;DHT22;7057;49.984;8.404;2023-06-24T07:35:07;23.40;99.90
13970;DHT22;7057;49.984;8.404;2023-06-24T07:37:34;23.50;99.90
13970;DHT22;7057;49.984;8.404;2023-06-24T07:40:02;23.70;99.90
13970;DHT22;7057;49.984;8.404;2023-06-24T07:42:31;23.80;99.90
13970;DHT22;7057;49.984;8.404;2023-06-24T07:44:58;23.90;99.90
13970;DHT22;7057;49.984;8.404;2023-06-24T07:47:26;24.00;99.90
13970;DHT22;7057;49.984;8.404;2023-06-24T07:49:53;24.10;99.90
13970;DHT22;7057;49.984;8.404;2023-06-24T07:52:21;24.10;99.90
13970;DHT22;7057;49.984;8.404;2023-06-24T07:54:48;24.10;99.90
13970;DHT22;7057;49.984;8.404;2023-06-24T07:57:15;24.10;99.90
13970;DHT22;7057;49.984;8.404;2023-06-24T07:59:42;24.10;99.90
13970;DHT22;7057;49.984;8.404;2023-06-24T08:02:10;24.10;99.90
13970;DHT22;7057;49.984;8.404;2023-06-24T08:04:38;24.10;99.90
13970;DHT22;7057;49.984;8.404;2023-06-24T08:07:05;24.20;99.90
13970;DHT22;7057;49.984;8.404;2023-06-24T08:09:32;24.40;99.90
13970;DHT22;7057;49.984;8.404;2023-06-24T08:12:00;24.60;99.90
13970;DHT22;7057;49.984;8.404;2023-06-24T08:14:27;24.80;99.90
13970;DHT22;7057;49.984;8.404;2023-06-24T08:16:54;24.90;99.90
13970;DHT22;7057;49.984;8.404;2023-06-24T08:19:21;25.00;99.90
13970;DHT22;7057;49.984;8.404;2023-06-24T08:21:50;25.10;99.90
13970;DHT22;7057;49.984;8.404;2023-06-24T08:24:17;25.10;99.90
13970;DHT22;7057;49.984;8.404;2023-06-24T08:26:44;25.10;99.90
13970;DHT22;7057;49.984;8.404;2023-06-24T08:29:11;25.10;99.90
13970;DHT22;7057;49.984;8.404;2023-06-24T08:31:38;25.20;99.90
13970;DHT22;7057;49.984;8.404;2023-06-24T08:34:05;25.40;99.90
13970;DHT22;7057;49.984;8.404;2023-06-24T08:36:33;25.60;99.90
13970;DHT22;7057;49.984;8.404;2023-06-24T08:39:01;25.60;99.90
13970;DHT22;7057;49.984;8.404;2023-06-24T08:41:28;25.90;99.90
13970;DHT22;7057;49.984;8.404;2023-06-24T08:43:56;26.00;99.90
13970;DHT22;7057;49.984;8.404;2023-06-24T08:46:24;26.20;99.90
13970;DHT22;7057;49.984;8.404;2023-06-24T08:48:57;26.20;99.90
13970;DHT22;7057;49.984;8.404;2023-06-24T08:51:27;26.20;99.90
13970;DHT22;7057;49.984;8.404;2023-06-24T08:53:57;26.30;99.90
13970;DHT22;7057;49.984;8.404;2023-06-24T08:56:26;26.50;99.90
13970;DHT22;7057;49.984;8.404;2023-06-24T08:58:54;26.60;99.90
13970;DHT22;7057;49.984;8.404;2023-06-24T09:01:22;26.60;99.90
13970;DHT22;7057;49.984;8.404;2023-06-24T09:03:49;26.70;99.90
13970;DHT22;7057;49.984;8.404;2023-06-24T09:06:16;26.80;99.90
13970;DHT22;7057;49.984;8.404;2023-06-24T09:08:52;27.00;99.90
13970;DHT22;7057;49.984;8.404;2023-06-24T09:11:22;27.20;99.90
13970;DHT22;7057;49.984;8.404;2023-06-24T09:13:55;27.20;99.90
13970;DHT22;7057;49.984;8.404;2023-06-24T09:16:23;27.20;99.90
13970;DHT22;7057;49.984;8.404;2023-06-24T09:18:52;27.20;99.90
13970;DHT22;7057;49.984;8.404;2023-06-24T09:21:23;27.30;99.90
13970;DHT22;7057;49.984;8.404;2023-06-24T09:23:53;27.30;99.90
13970;DHT22;7057;49.984;8.404;2023-06-24T09:26:23;27.50;99.90
13970;DHT22;7057;49.984;8.404;2023-06-24T09:28:50;27.60;99.90
13970;DHT22;7057;49.984;8.404;2023-06-24T09:31:18;27.60;99.90
13970;DHT22;7057;49.984;8.404;2023-06-24T09:33:46;27.60;99.90
13970;DHT22;7057;49.984;8.404;2023-06-24T09:36:14;27.70;99.90
13970;DHT22;7057;49.984;8.404;2023-06-24T09:38:43;28.00;99.90
13970;DHT22;7057;49.984;8.404;2023-06-24T09:41:11;28.00;99.90
13970;DHT22;7057;49.984;8.404;2023-06-24T09:43:38;28.00;99.90
13970;DHT22;7057;49.984;8.404;2023-06-24T09:46:07;28.10;99.90
13970;DHT22;7057;49.984;8.404;2023-06-24T09:48:36;28.10;99.90
13970;DHT22;7057;49.984;8.404;2023-06-24T09:51:03;28.20;99.90
13970;DHT22;7057;49.984;8.404;2023-06-24T09:53:32;28.20;99.90
13970;DHT22;7057;49.984;8.404;2023-06-24T09:56:00;28.20;99.90
13970;DHT22;7057;49.984;8.404;2023-06-24T09:58:31;28.30;99.90
13970;DHT22;7057;49.984;8.404;2023-06-24T10:01:02;28.30;99.90
13970;DHT22;7057;49.984;8.404;2023-06-24T10:03:33;28.40;99.90
13970;DHT22;7057;49.984;8.404;2023-06-24T10:06:03;28.60;99.90
13970;DHT22;7057;49.984;8.404;2023-06-24T10:08:32;28.70;99.90
13970;DHT22;7057;49.984;8.404;2023-06-24T10:10:59;28.40;99.90
13970;DHT22;7057;49.984;8.404;2023-06-24T10:13:28;28.40;99.90
13970;DHT22;7057;49.984;8.404;2023-06-24T10:15:56;28.60;99.90
13970;DHT22;7057;49.984;8.404;2023-06-24T10:18:33;28.70;99.90
13970;DHT22;7057;49.984;8.404;2023-06-24T10:21:02;28.70;99.90
13970;DHT22;7057;49.984;8.404;2023-06-24T10:23:31;28.70;99.90
13970;DHT22;7057;49.984;8.404;2023-06-24T10:25:58;28.70;99.90
13970;DHT22;7057;49.984;8.404;2023-06-24T10:28:26;28.60;99.90
13970;DHT22;7057;49.984;8.404;2023-06-24T10:30:54;28.60;99.90
13970;DHT22;7057;49.984;8.404;2023-06-24T10:33:23;28.60;99.90
13970;DHT22;7057;49.984;8.404;2023-06-24T10:35:50;28.60;99.90
13970;DHT22;7057;49.984;8.404;2023-06-24T10:38:20;28.60;99.90
13970;DHT22;7057;49.984;8.404;2023-06-24T10:40:49;28.50;99.90
13970;DHT22;7057;49.984;8.404;2023-06-24T10:43:29;28.60;99.90
13970;DHT22;7057;49.984;8.404;2023-06-24T10:45:57;28.70;99.90
13970;DHT22;7057;49.984;8.404;2023-06-24T10:48:25;28.80;99.90
13970;DHT22;7057;49.984;8.404;2023-06-24T10:50:52;28.90;99.90
13970;DHT22;7057;49.984;8.404;2023-06-24T10:53:21;29.00;99.90
13970;DHT22;7057;49.984;8.404;2023-06-24T10:55:48;29.10;99.90
13970;DHT22;7057;49.984;8.404;2023-06-24T10:58:16;29.20;99.90
13970;DHT22;7057;49.984;8.404;2023-06-24T11:00:43;29.30;99.90
13970;DHT22;7057;49.984;8.404;2023-06-24T11:03:13;29.30;99.90
13970;DHT22;7057;49.984;8.404;2023-06-24T11:05:42;29.20;99.70
13970;DHT22;7057;49.984;8.404;2023-06-24T11:08:09;29.40;99.90
13970;DHT22;7057;49.984;8.404;2023-06-24T11:10:45;29.50;99.20
13970;DHT22;7057;49.984;8.404;2023-06-24T11:13:12;29.60;99.40
13970;DHT22;7057;49.984;8.404;2023-06-24T11:15:40;29.60;99.20
13970;DHT22;7057;49.984;8.404;2023-06-24T11:18:08;29.60;98.20
13970;DHT22;7057;49.984;8.404;2023-06-24T11:20:37;29.50;97.90
13970;DHT22;7057;49.984;8.404;2023-06-24T11:23:07;29.50;98.20
13970;DHT22;7057;49.984;8.404;2023-06-24T11:25:39;29.50;98.90
13970;DHT22;7057;49.984;8.404;2023-06-24T11:28:14;29.60;97.90
13970;DHT22;7057;49.984;8.404;2023-06-24T11:30:41;29.60;99.20
13970;DHT22;7057;49.984;8.404;2023-06-24T11:33:09;29.60;98.40
13970;DHT22;7057;49.984;8.404;2023-06-24T11:35:36;29.50;98.10
13970;DHT22;7057;49.984;8.404;2023-06-24T11:38:03;29.10;98.40
13970;DHT22;7057;49.984;8.404;2023-06-24T11:40:31;29.00;98.60
13970;DHT22;7057;49.984;8.404;2023-06-24T11:43:01;29.00;98.60
13970;DHT22;7057;49.984;8.404;2023-06-24T11:45:31;29.00;99.20
13970;DHT22;7057;49.984;8.404;2023-06-24T11:48:02;29.00;98.60
13970;DHT22;7057;49.984;8.404;2023-06-24T11:50:31;28.90;96.70
13970;DHT22;7057;49.984;8.404;2023-06-24T11:52:59;28.90;96.20
13970;DHT22;7057;49.984;8.404;2023-06-24T11:55:27;28.90;97.40
13970;DHT22;7057;49.984;8.404;2023-06-24T11:57:56;29.10;97.70
13970;DHT22;7057;49.984;8.404;2023-06-24T12:00:24;29.30;98.50
13970;DHT22;7057;49.984;8.404;2023-06-24T12:02:57;29.50;99.90
13970;DHT22;7057;49.984;8.404;2023-06-24T12:05:26;29.50;97.50
13970;DHT22;7057;49.984;8.404;2023-06-24T12:07:55;29.50;97.40
13970;DHT22;7057;49.984;8.404;2023-06-24T12:10:23;29.70;97.30
13970;DHT22;7057;49.984;8.404;2023-06-24T12:12:50;29.80;98.20
13970;DHT22;7057;49.984;8.404;2023-06-24T12:15:18;29.70;97.70
13970;DHT22;7057;49.984;8.404;2023-06-24T12:17:45;29.70;98.60
13970;DHT22;7057;49.984;8.404;2023-06-24T12:20:14;29.80;98.90
13970;DHT22;7057;49.984;8.404;2023-06-24T12:22:42;29.80;97.60
13970;DHT22;7057;49.984;8.404;2023-06-24T12:25:09;29.90;98.00
13970;DHT22;7057;49.984;8.404;2023-06-24T12:27:37;30.10;99.20
13970;DHT22;7057;49.984;8.404;2023-06-24T12:30:07;30.20;99.10
13970;DHT22;7057;49.984;8.404;2023-06-24T12:32:34;30.30;98.30
13970;DHT22;7057;49.984;8.404;2023-06-24T12:35:02;30.10;97.50
13970;DHT22;7057;49.984;8.404;2023-06-24T12:37:32;30.00;97.80
13970;DHT22;7057;49.984;8.404;2023-06-24T12:40:00;29.90;96.50
13970;DHT22;7057;49.984;8.404;2023-06-24T12:42:27;29.80;96.80
13970;DHT22;7057;49.984;8.404;2023-06-24T12:44:54;29.80;96.60
13970;DHT22;7057;49.984;8.404;2023-06-24T12:47:22;29.50;95.60
13970;DHT22;7057;49.984;8.404;2023-06-24T12:49:49;29.60;96.70
13970;DHT22;7057;49.984;8.404;2023-06-24T12:52:17;30.00;96.60
13970;DHT22;7057;49.984;8.404;2023-06-24T12:54:45;30.30;96.10
13970;DHT22;7057;49.984;8.404;2023-06-24T12:57:12;30.60;96.40
13970;DHT22;7057;49.984;8.404;2023-06-24T12:59:39;30.80;96.90
13970;DHT22;7057;49.984;8.404;2023-06-24T13:02:07;31.00;96.80
13970;DHT22;7057;49.984;8.404;2023-06-24T13:04:34;31.20;95.40
13970;DHT22;7057;49.984;8.404;2023-06-24T13:07:01;31.20;95.30
13970;DHT22;7057;49.984;8.404;2023-06-24T13:09:29;31.20;95.60
13970;DHT22;7057;49.984;8.404;2023-06-24T13:11:57;31.10;96.10
13970;DHT22;7057;49.984;8.404;2023-06-24T13:14:25;31.30;96.30
13970;DHT22;7057;49.984;8.404;2023-06-24T13:16:54;31.60;96.00
13970;DHT22;7057;49.984;8.404;2023-06-24T13:19:21;31.80;96.20
13970;DHT22;7057;49.984;8.404;2023-06-24T13:21:48;31.60;94.30
13970;DHT22;7057;49.984;8.404;2023-06-24T13:24:15;31.50;94.70
13970;DHT22;7057;49.984;8.404;2023-06-24T13:26:43;31.70;94.90
13970;DHT22;7057;49.984;8.404;2023-06-24T13:29:11;32.00;94.50
13970;DHT22;7057;49.984;8.404;2023-06-24T13:31:39;32.30;93.50
13970;DHT22;7057;49.984;8.404;2023-06-24T13:34:06;32.10;92.90
13970;DHT22;7057;49.984;8.404;2023-06-24T13:36:35;32.20;94.70
13970;DHT22;7057;49.984;8.404;2023-06-24T13:39:03;32.50;94.40
13970;DHT22;7057;49.984;8.404;2023-06-24T13:41:31;32.40;92.90
13970;DHT22;7057;49.984;8.404;2023-06-24T13:43:59;32.10;92.10
13970;DHT22;7057;49.984;8.404;2023-06-24T13:46:28;32.10;93.00
13970;DHT22;7057;49.984;8.404;2023-06-24T13:48:56;32.10;93.30
13970;DHT22;7057;49.984;8.404;2023-06-24T13:51:24;32.10;92.40
13970;DHT22;7057;49.984;8.404;2023-06-24T13:53:53;32.20;93.00
13970;DHT22;7057;49.984;8.404;2023-06-24T13:56:21;32.10;92.60
13970;DHT22;7057;49.984;8.404;2023-06-24T13:58:50;32.20;93.10
13970;DHT22;7057;49.984;8.404;2023-06-24T14:01:17;32.20;92.90
13970;DHT22;7057;49.984;8.404;2023-06-24T14:03:46;32.40;93.30
13970;DHT22;7057;49.984;8.404;2023-06-24T14:06:14;32.60;94.10
13970;DHT22;7057;49.984;8.404;2023-06-24T14:08:42;32.60;91.80
13970;DHT22;7057;49.984;8.404;2023-06-24T14:11:10;32.60;92.30
13970;DHT22;7057;49.984;8.404;2023-06-24T14:13:37;32.80;92.30
13970;DHT22;7057;49.984;8.404;2023-06-24T14:16:05;33.00;91.50
13970;DHT22;7057;49.984;8.404;2023-06-24T14:18:32;33.00;92.10
13970;DHT22;7057;49.984;8.404;2023-06-24T14:21:03;32.90;91.70
13970;DHT22;7057;49.984;8.404;2023-06-24T14:23:31;33.20;91.70
13970;DHT22;7057;49.984;8.404;2023-06-24T14:25:59;32.70;90.80
13970;DHT22;7057;49.984;8.404;2023-06-24T14:28:26;32.60;91.00
13970;DHT22;7057;49.984;8.404;2023-06-24T14:30:54;33.00;92.00
13970;DHT22;7057;49.984;8.404;2023-06-24T14:33:21;33.10;90.90
13970;DHT22;7057;49.984;8.404;2023-06-24T14:35:48;33.00;90.90
13970;DHT22;7057;49.984;8.404;2023-06-24T14:38:18;32.60;91.20
13970;DHT22;7057;49.984;8.404;2023-06-24T14:40:45;32.40;91.90
13970;DHT22;7057;49.984;8.404;2023-06-24T14:43:12;32.50;91.60
13970;DHT22;7057;49.984;8.404;2023-06-24T14:45:40;32.20;91.20
13970;DHT22;7057;49.984;8.404;2023-06-24T14:48:07;31.50;91.50
13970;DHT22;7057;49.984;8.404;2023-06-24T14:50:34;31.20;92.20
13970;DHT22;7057;49.984;8.404;2023-06-24T14:53:02;31.10;92.40
13970;DHT22;7057;49.984;8.404;2023-06-24T14:55:31;31.00;92.40
13970;DHT22;7057;49.984;8.404;2023-06-24T14:57:58;30.70;91.90
13970;DHT22;7057;49.984;8.404;2023-06-24T15:00:25;30.70;92.40
13970;DHT22;7057;49.984;8.404;2023-06-24T15:02:53;30.50;92.30
13970;DHT22;7057;49.984;8.404;2023-06-24T15:05:20;30.30;92.20
13970;DHT22;7057;49.984;8.404;2023-06-24T15:07:47;30.40;92.00
13970;DHT22;7057;49.984;8.404;2023-06-24T15:10:14;30.40;92.70
13970;DHT22;7057;49.984;8.404;2023-06-24T15:12:43;30.30;92.10
13970;DHT22;7057;49.984;8.404;2023-06-24T15:15:10;30.10;92.60
13970;DHT22;7057;49.984;8.404;2023-06-24T15:17:37;30.00;93.30
13970;DHT22;7057;49.984;8.404;2023-06-24T15:20:11;30.20;93.00
13970;DHT22;7057;49.984;8.404;2023-06-24T15:22:38;30.40;93.10
13970;DHT22;7057;49.984;8.404;2023-06-24T15:25:06;30.80;93.10
13970;DHT22;7057;49.984;8.404;2023-06-24T15:27:34;31.10;93.10
13970;DHT22;7057;49.984;8.404;2023-06-24T15:30:03;31.40;92.50
13970;DHT22;7057;49.984;8.404;2023-06-24T15:32:30;31.70;92.50
13970;DHT22;7057;49.984;8.404;2023-06-24T15:34:57;31.90;92.30
13970;DHT22;7057;49.984;8.404;2023-06-24T15:37:24;32.00;91.80
13970;DHT22;7057;49.984;8.404;2023-06-24T15:39:52;32.20;91.60
13970;DHT22;7057;49.984;8.404;2023-06-24T15:42:19;32.20;91.40
13970;DHT22;7057;49.984;8.404;2023-06-24T15:44:46;32.00;91.40
13970;DHT22;7057;49.984;8.404;2023-06-24T15:47:14;32.20;91.30
13970;DHT22;7057;49.984;8.404;2023-06-24T15:49:42;32.30;91.10
13970;DHT22;7057;49.984;8.404;2023-06-24T15:52:09;32.30;91.80